Time;durP1;ratioP1;P1;durP2;ratioP2;P2;SDS_P1;SDS_P2;PMS_P1;PMS_P2;Temp;Humidity;BMP_temperature;BMP_pressure;BME280_temperature;BME280_humidity;BME280_pressure;Samples;Min_cycle;Max_cycle;Signal;HPM_P1;HPM_P2
2023/10/15 00:01:51;;;;;;;6.53;2.65;;;8.80;77.90;;;;;;5054440;28;20029;-77
2023/10/15 00:04:17;;;;;;;12.70;6.00;;;8.80;77.90;;;;;;5057212;28;20355;-77
2023/10/15 00:06:42;;;;;;;8.32;3.17;;;8.80;77.80;;;;;;5058975;28;20398;-74
2023/10/15 00:09:09;;;;;;;6.38;1.98;;;8.70;78.70;;;;;;5059634;28;20040;-78
2023/10/15 00:11:34;;;;;;;7.05;2.20;;;8.60;78.00;;;;;;5059533;28;20044;-76
2023/10/15 00:14:03;;;;;;;9.38;2.53;;;8.60;77.80;;;;;;5060138;28;20021;-79
2023/10/15 00:16:29;;;;;;;7.13;2.13;;;8.60;77.50;;;;;;5066319;28;20060;-84
2023/10/15 00:18:55;;;;;;;12.60;4.72;;;8.50;77.20;;;;;;5065051;28;20025;-84
2023/10/15 00:21:20;;;;;;;5.88;2.45;;;8.40;77.20;;;;;;5064880;28;20024;-83
2023/10/15 00:23:47;;;;;;;7.43;2.28;;;8.30;77.30;;;;;;5065444;28;20474;-83
2023/10/15 00:26:14;;;;;;;7.05;2.80;;;8.20;77.70;;;;;;5059073;28;20021;-76
2023/10/15 00:28:40;;;;;;;7.20;3.00;;;8.10;78.20;;;;;;5056872;28;20389;-74
2023/10/15 00:31:09;;;;;;;7.45;2.92;;;8.10;78.50;;;;;;5058377;28;20074;-73
2023/10/15 00:33:36;;;;;;;7.05;2.53;;;8.10;78.40;;;;;;5059507;28;20041;-72
2023/10/15 00:36:04;;;;;;;7.05;2.17;;;8.10;78.80;;;;;;5061786;28;20039;-73
2023/10/15 00:38:30;;;;;;;5.80;2.00;;;8.10;78.50;;;;;;5062235;28;20077;-72
2023/10/15 00:41:00;;;;;;;7.03;2.33;;;8.10;77.90;;;;;;5058849;28;20036;-76
2023/10/15 00:43:26;;;;;;;8.77;2.80;;;8.00;77.60;;;;;;5053012;28;20025;-74
2023/10/15 00:45:52;;;;;;;6.32;2.85;;;8.10;77.80;;;;;;5053679;28;20032;-79
2023/10/15 00:48:24;;;;;;;8.15;3.15;;;8.00;78.10;;;;;;5053511;28;20037;-74
2023/10/15 00:50:51;;;;;;;5.55;2.58;;;8.00;78.50;;;;;;5053345;28;20383;-76
2023/10/15 00:53:22;;;;;;;8.65;2.83;;;8.00;78.70;;;;;;5053525;28;20017;-75
2023/10/15 00:55:50;;;;;;;8.70;2.55;;;7.90;78.60;;;;;;5053520;28;20044;-81
2023/10/15 00:58:21;;;;;;;6.93;2.10;;;7.80;79.20;;;;;;5054181;28;20032;-81
2023/10/15 01:03:17;;;;;;;11.65;2.70;;;7.80;79.60;;;;;;5053483;28;20105;-81
2023/10/15 01:05:53;;;;;;;5.82;1.90;;;7.80;79.10;;;;;;5053040;28;20508;-81
2023/10/15 01:08:25;;;;;;;14.77;2.20;;;7.80;79.10;;;;;;5051745;28;20060;-80
2023/10/15 01:11:18;;;;;;;7.55;1.80;;;7.70;79.20;;;;;;5051795;28;20029;-80
2023/10/15 01:13:43;;;;;;;6.78;2.03;;;7.60;79.40;;;;;;5053615;28;20104;-77
2023/10/15 01:16:13;;;;;;;5.70;2.03;;;7.50;79.50;;;;;;5052686;28;20136;-78
2023/10/15 01:18:39;;;;;;;9.77;3.08;;;7.50;79.50;;;;;;5052697;28;20040;-75
2023/10/15 01:21:09;;;;;;;7.55;3.58;;;7.50;79.50;;;;;;5052614;28;20494;-80
2023/10/15 01:26:16;;;;;;;7.40;2.38;;;7.40;80.20;;;;;;5053528;28;20029;-83
2023/10/15 01:28:43;;;;;;;6.95;2.10;;;7.50;80.30;;;;;;5052098;28;20366;-82
2023/10/15 01:31:14;;;;;;;8.15;2.60;;;7.40;80.00;;;;;;5052833;28;20025;-79
2023/10/15 01:33:50;;;;;;;6.78;2.25;;;7.50;80.00;;;;;;5051920;28;20049;-78
2023/10/15 01:36:19;;;;;;;5.63;1.90;;;7.40;79.90;;;;;;5053206;28;20032;-79
2023/10/15 01:38:45;;;;;;;5.65;1.65;;;7.50;80.20;;;;;;5053073;28;20029;-79
2023/10/15 01:41:14;;;;;;;16.83;4.32;;;7.60;80.00;;;;;;5052898;28;20027;-80
2023/10/15 01:43:40;;;;;;;8.65;3.33;;;7.60;80.00;;;;;;5052533;28;20485;-80
2023/10/15 01:46:12;;;;;;;6.18;1.75;;;7.70;79.90;;;;;;5052619;28;20490;-79
2023/10/15 01:48:41;;;;;;;3.83;1.60;;;7.60;79.70;;;;;;5052475;28;20032;-78
2023/10/15 01:51:07;;;;;;;3.70;1.50;;;7.70;80.00;;;;;;5052536;28;20029;-79
2023/10/15 01:53:37;;;;;;;8.32;2.60;;;7.80;79.80;;;;;;5052899;28;20014;-74
2023/10/15 01:56:04;;;;;;;6.97;2.25;;;7.80;79.60;;;;;;5056239;28;20032;-77
2023/10/15 01:58:33;;;;;;;5.28;1.90;;;7.80;79.60;;;;;;5056027;28;20013;-77
2023/10/15 02:01:31;;;;;;;8.38;2.38;;;7.80;79.50;;;;;;5055879;28;20090;-81
2023/10/15 02:03:57;;;;;;;7.20;2.65;;;7.90;79.50;;;;;;5056172;28;20373;-82
2023/10/15 02:06:24;;;;;;;5.30;2.30;;;8.00;79.30;;;;;;5054876;28;20017;-82
2023/10/15 02:08:51;;;;;;;10.80;2.55;;;8.00;79.30;;;;;;5056160;28;20029;-82
2023/10/15 02:11:21;;;;;;;7.72;2.22;;;8.00;79.10;;;;;;5055962;28;20021;-81
2023/10/15 02:13:47;;;;;;;5.57;1.92;;;7.90;79.40;;;;;;5056100;28;20520;-82
2023/10/15 02:16:17;;;;;;;4.97;1.88;;;8.00;79.50;;;;;;5055882;28;20111;-80
2023/10/15 02:18:49;;;;;;;9.27;2.30;;;8.00;79.30;;;;;;5056499;28;20031;-82
2023/10/15 02:21:16;;;;;;;6.38;2.05;;;8.10;79.40;;;;;;5056717;28;20036;-78
2023/10/15 02:23:49;;;;;;;6.68;1.95;;;8.10;79.30;;;;;;5057627;28;20021;-78
2023/10/15 02:26:30;;;;;;;6.03;2.13;;;8.20;79.20;;;;;;5057051;28;20047;-72
2023/10/15 02:29:05;;;;;;;4.53;1.92;;;8.20;79.00;;;;;;5056053;28;20057;-73
2023/10/15 02:31:31;;;;;;;;;;;8.20;78.90;;;;;;5056026;28;20450;-77
2023/10/15 02:33:56;;;;;;;;;;;8.10;78.80;;;;;;5055838;28;19999;-80
2023/10/15 02:36:24;;;;;;;3.53;1.50;;;8.10;79.00;;;;;;5055492;28;20392;-80
2023/10/15 02:38:52;;;;;;;4.78;1.48;;;8.10;79.30;;;;;;5055286;28;20270;-78
2023/10/15 02:41:19;;;;;;;6.43;1.70;;;8.10;79.30;;;;;;5055217;28;20071;-76
2023/10/15 02:43:54;;;;;;;8.85;2.15;;;8.10;79.40;;;;;;5055408;28;20107;-81
2023/10/15 02:48:48;;;;;;;8.57;2.45;;;8.20;80.40;;;;;;5055621;28;20482;-80
2023/10/15 02:51:18;;;;;;;7.22;2.40;;;8.10;79.60;;;;;;5047946;28;20331;-81
2023/10/15 02:53:51;;;;;;;8.82;1.90;;;8.10;80.00;;;;;;5035080;28;20024;-76
2023/10/15 02:56:17;;;;;;;7.60;2.45;;;8.10;80.00;;;;;;5033770;28;20174;-81
2023/10/15 02:58:44;;;;;;;5.57;2.15;;;8.10;80.20;;;;;;5050179;28;20025;-76
2023/10/15 03:01:23;;;;;;;6.85;2.00;;;8.10;80.20;;;;;;5034983;28;20049;-78
2023/10/15 03:03:50;;;;;;;4.47;1.80;;;8.00;80.60;;;;;;5034819;28;20101;-77
2023/10/15 03:06:24;;;;;;;3.63;1.50;;;8.10;80.80;;;;;;5033333;28;20091;-76
2023/10/15 03:08:51;;;;;;;5.30;1.45;;;8.10;80.70;;;;;;5034713;28;20513;-74
2023/10/15 03:11:19;;;;;;;4.28;1.60;;;8.20;80.50;;;;;;5034857;28;20021;-80
2023/10/15 03:14:00;;;;;;;5.07;1.70;;;8.10;80.50;;;;;;5033535;28;20145;-76
2023/10/15 03:16:31;;;;;;;6.93;2.00;;;8.10;80.60;;;;;;5034724;28;20029;-78
2023/10/15 03:18:57;;;;;;;4.80;1.60;;;8.10;80.60;;;;;;5035228;28;20020;-81
2023/10/15 03:21:26;;;;;;;7.82;1.30;;;8.20;80.60;;;;;;5034740;28;20489;-75
2023/10/15 03:23:55;;;;;;;10.73;1.83;;;8.30;80.50;;;;;;5034579;28;20393;-75
2023/10/15 03:26:22;;;;;;;7.63;1.85;;;8.30;80.10;;;;;;5034470;28;20112;-78
2023/10/15 03:28:51;;;;;;;5.40;1.20;;;8.30;80.20;;;;;;5034896;28;20110;-79
2023/10/15 03:31:20;;;;;;;7.10;1.60;;;8.30;80.60;;;;;;5035133;28;20029;-81
2023/10/15 03:39:15;;;;;;;8.68;2.17;;;8.40;80.40;;;;;;5047872;28;20028;-73
2023/10/15 03:41:49;;;;;;;4.88;1.80;;;8.40;80.10;;;;;;5034268;28;20028;-75
2023/10/15 03:44:23;;;;;;;5.55;1.50;;;8.40;79.80;;;;;;5032961;28;20030;-74
2023/10/15 03:46:48;;;;;;;6.05;1.60;;;8.50;79.70;;;;;;5034556;28;20029;-75
2023/10/15 03:49:14;;;;;;;6.07;1.60;;;8.40;79.60;;;;;;5049883;28;20024;-77
2023/10/15 03:51:48;;;;;;;4.35;1.35;;;8.50;79.80;;;;;;5034693;28;20052;-77
2023/10/15 03:54:14;;;;;;;5.63;1.35;;;8.50;79.80;;;;;;5039480;28;20033;-76
2023/10/15 03:56:43;;;;;;;6.07;1.50;;;8.50;80.20;;;;;;5036777;28;20048;-75
2023/10/15 03:59:11;;;;;;;4.05;1.20;;;8.50;80.10;;;;;;5054108;28;20017;-77
2023/10/15 04:01:43;;;;;;;7.18;1.20;;;8.60;80.00;;;;;;5053914;28;20029;-80
2023/10/15 04:04:09;;;;;;;6.22;1.58;;;8.70;79.90;;;;;;5054115;28;20032;-74
2023/10/15 04:06:35;;;;;;;7.78;1.58;;;8.70;79.80;;;;;;5053961;28;20048;-78
2023/10/15 04:11:30;;;;;;;3.35;1.40;;;8.80;79.40;;;;;;5054047;28;20633;-76
2023/10/15 04:14:08;;;;;;;4.00;1.17;;;8.90;79.50;;;;;;5053864;28;20025;-76
2023/10/15 04:16:34;;;;;;;5.97;1.60;;;8.90;79.40;;;;;;5052841;28;20504;-79
2023/10/15 04:19:00;;;;;;;3.47;1.17;;;8.90;79.60;;;;;;5053527;28;20020;-76
2023/10/15 04:21:26;;;;;;;5.75;1.27;;;8.90;79.50;;;;;;5052398;28;20021;-81
2023/10/15 04:23:53;;;;;;;3.80;1.08;;;8.90;79.60;;;;;;5053499;28;20124;-82
2023/10/15 04:26:22;;;;;;;4.10;1.70;;;8.80;79.70;;;;;;5053476;28;20029;-82
2023/10/15 04:28:52;;;;;;;5.50;1.92;;;8.90;79.80;;;;;;5055230;28;20059;-82
2023/10/15 04:31:22;;;;;;;3.95;1.13;;;8.90;79.80;;;;;;5062412;28;20028;-79
2023/10/15 04:33:52;;;;;;;5.40;1.38;;;8.90;79.80;;;;;;5069170;28;20059;-72
2023/10/15 04:36:19;;;;;;;2.60;1.13;;;8.90;79.70;;;;;;5071964;28;20059;-82
2023/10/15 04:38:45;;;;;;;4.88;1.42;;;8.90;79.60;;;;;;5058529;28;20025;-82
2023/10/15 04:41:11;;;;;;;3.90;1.10;;;8.90;79.70;;;;;;5053044;28;20025;-79
2023/10/15 04:43:46;;;;;;;5.55;1.35;;;8.90;79.90;;;;;;5053659;28;20078;-77
2023/10/15 04:46:17;;;;;;;8.65;1.67;;;8.90;80.20;;;;;;5053562;28;20021;-79
2023/10/15 04:48:50;;;;;;;5.95;1.70;;;8.80;80.30;;;;;;5052155;28;20025;-82
2023/10/15 04:51:16;;;;;;;6.15;1.50;;;8.80;80.50;;;;;;5058374;28;20036;-82
2023/10/15 04:53:48;;;;;;;3.75;1.17;;;8.90;80.50;;;;;;5053820;28;20021;-80
2023/10/15 04:56:15;;;;;;;3.28;1.58;;;8.90;80.50;;;;;;5053838;28;20115;-72
2023/10/15 04:58:41;;;;;;;5.20;1.35;;;8.90;80.40;;;;;;5052678;28;20025;-84
2023/10/15 05:01:07;;;;;;;6.28;1.63;;;9.00;80.30;;;;;;5052810;28;20036;-79
2023/10/15 05:03:34;;;;;;;8.13;1.73;;;9.00;80.20;;;;;;5053952;28;20025;-83
2023/10/15 05:06:04;;;;;;;5.90;1.77;;;9.00;80.70;;;;;;5053284;28;20473;-80
2023/10/15 05:08:30;;;;;;;10.68;3.10;;;8.90;80.90;;;;;;5053740;28;20033;-83
2023/10/15 05:10:55;;;;;;;5.55;2.60;;;8.90;81.00;;;;;;5052665;28;20052;-83
2023/10/15 05:13:21;;;;;;;5.78;2.15;;;8.80;81.30;;;;;;5052382;28;20366;-81
2023/10/15 05:15:47;;;;;;;6.00;1.75;;;8.90;81.20;;;;;;5054067;28;20040;-83
2023/10/15 05:18:15;;;;;;;4.00;2.10;;;8.90;81.10;;;;;;5053168;28;20581;-83
2023/10/15 05:20:42;;;;;;;4.72;1.80;;;9.00;80.80;;;;;;5053108;28;20021;-83
2023/10/15 05:23:08;;;;;;;5.93;2.22;;;9.00;80.70;;;;;;5053063;28;20021;-77
2023/10/15 05:25:33;;;;;;;7.82;2.20;;;8.90;80.70;;;;;;5053763;28;20032;-78
2023/10/15 05:27:59;;;;;;;7.97;2.63;;;9.00;80.80;;;;;;5053212;28;20108;-74
2023/10/15 05:30:26;;;;;;;10.05;2.60;;;8.90;80.90;;;;;;5057774;28;20133;-77
2023/10/15 05:32:52;;;;;;;5.00;2.00;;;8.80;80.80;;;;;;5056679;28;20040;-78
2023/10/15 05:35:17;;;;;;;7.00;2.40;;;8.90;80.80;;;;;;5056713;28;20608;-78
2023/10/15 05:37:44;;;;;;;7.43;2.58;;;8.80;80.00;;;;;;5056899;28;20056;-79
2023/10/15 05:40:12;;;;;;;5.22;2.03;;;8.80;80.20;;;;;;5056498;28;20017;-77
2023/10/15 05:42:38;;;;;;;8.23;2.22;;;8.90;80.30;;;;;;5056672;28;20263;-75
2023/10/15 05:45:07;;;;;;;6.22;2.75;;;9.00;80.30;;;;;;5056803;28;20053;-80
2023/10/15 05:47:36;;;;;;;7.75;2.78;;;9.00;80.30;;;;;;5056761;28;20362;-76
2023/10/15 05:50:05;;;;;;;6.35;2.80;;;9.00;80.60;;;;;;5056354;28;20078;-74
2023/10/15 05:52:31;;;;;;;6.10;2.67;;;9.10;80.90;;;;;;5056247;28;20032;-76
2023/10/15 05:54:57;;;;;;;8.23;2.42;;;9.10;80.70;;;;;;5056217;28;20036;-74
2023/10/15 05:57:23;;;;;;;9.55;2.22;;;9.10;80.60;;;;;;5056241;28;20029;-75
2023/10/15 05:59:49;;;;;;;8.85;2.63;;;9.20;80.20;;;;;;5056413;28;20033;-75
2023/10/15 06:02:15;;;;;;;3.97;1.75;;;9.20;80.00;;;;;;5056146;28;20039;-76
2023/10/15 06:04:42;;;;;;;7.70;2.92;;;9.10;80.20;;;;;;5056440;28;20055;-77
2023/10/15 06:07:08;;;;;;;8.75;3.13;;;9.20;80.40;;;;;;5057555;28;20497;-80
2023/10/15 06:09:34;;;;;;;12.40;4.90;;;9.10;80.90;;;;;;5059182;28;20029;-77
2023/10/15 06:12:00;;;;;;;10.48;5.13;;;9.20;82.60;;;;;;5057329;28;20021;-78
2023/10/15 06:14:28;;;;;;;15.50;7.25;;;9.20;82.30;;;;;;5055680;28;20052;-76
2023/10/15 06:16:55;;;;;;;15.23;8.63;;;9.20;81.90;;;;;;5054598;28;20040;-74
2023/10/15 06:19:21;;;;;;;12.05;8.00;;;9.30;81.60;;;;;;5054899;28;20021;-77
2023/10/15 06:21:46;;;;;;;11.32;7.03;;;9.30;81.40;;;;;;5055613;28;20388;-77
2023/10/15 06:24:12;;;;;;;11.73;5.90;;;9.20;81.30;;;;;;5055689;28;20490;-77
2023/10/15 06:26:38;;;;;;;6.55;3.97;;;9.30;81.80;;;;;;5055701;28;20025;-77
2023/10/15 06:29:04;;;;;;;5.72;3.15;;;9.30;81.60;;;;;;5054163;28;20426;-76
2023/10/15 06:31:30;;;;;;;6.00;2.72;;;9.40;81.30;;;;;;5054713;28;20032;-77
2023/10/15 06:33:56;;;;;;;3.33;1.85;;;9.40;81.20;;;;;;5054556;28;20098;-81
2023/10/15 06:36:22;;;;;;;4.53;2.20;;;9.40;80.90;;;;;;5055190;28;20040;-82
2023/10/15 06:38:49;;;;;;;5.22;2.22;;;9.50;81.20;;;;;;5055600;28;20028;-80
2023/10/15 06:41:15;;;;;;;5.95;2.40;;;9.50;81.20;;;;;;5053397;28;20032;-79
2023/10/15 06:43:40;;;;;;;5.60;3.70;;;9.50;80.60;;;;;;5053982;28;20021;-76
2023/10/15 06:46:07;;;;;;;10.13;3.05;;;9.50;80.20;;;;;;5055398;28;20057;-75
2023/10/15 06:48:33;;;;;;;8.88;3.38;;;9.30;80.60;;;;;;5054942;28;20543;-74
2023/10/15 06:51:04;;;;;;;5.75;2.97;;;9.40;80.70;;;;;;5054809;28;20109;-76
2023/10/15 06:53:34;;;;;;;6.63;2.40;;;9.40;80.70;;;;;;5055105;28;20056;-73
2023/10/15 06:56:00;;;;;;;7.05;2.97;;;9.40;80.00;;;;;;5054957;28;20064;-73
2023/10/15 06:58:28;;;;;;;10.35;2.95;;;9.40;79.40;;;;;;5054765;28;20532;-75
2023/10/15 07:00:55;;;;;;;4.80;1.95;;;9.40;79.40;;;;;;5054865;28;20107;-74
2023/10/15 07:03:21;;;;;;;5.63;2.25;;;9.10;80.80;;;;;;5055008;28;20021;-77
2023/10/15 07:05:46;;;;;;;5.47;1.88;;;9.00;81.70;;;;;;5055215;28;20025;-78
2023/10/15 07:08:12;;;;;;;4.88;2.15;;;9.00;79.30;;;;;;5053432;28;20025;-79
2023/10/15 07:10:39;;;;;;;3.75;1.42;;;8.80;80.20;;;;;;5054604;28;20029;-77
2023/10/15 07:13:04;;;;;;;5.35;1.90;;;8.70;81.20;;;;;;5054726;28;20027;-74
2023/10/15 07:15:30;;;;;;;6.22;1.92;;;8.60;82.00;;;;;;5054968;28;20037;-77
2023/10/15 07:17:56;;;;;;;3.90;1.70;;;8.50;82.50;;;;;;5055258;28;20493;-78
2023/10/15 07:20:24;;;;;;;4.40;1.33;;;8.40;83.20;;;;;;5055306;28;20333;-75
2023/10/15 07:22:53;;;;;;;3.40;1.50;;;8.40;81.60;;;;;;5054931;28;20017;-73
2023/10/15 07:25:20;;;;;;;4.13;1.30;;;8.40;81.20;;;;;;5054638;28;20068;-73
2023/10/15 07:27:48;;;;;;;5.22;1.30;;;8.50;80.60;;;;;;5056575;28;20497;-73
2023/10/15 07:30:21;;;;;;;3.38;1.20;;;8.50;79.70;;;;;;5055748;28;20025;-75
2023/10/15 07:32:47;;;;;;;4.38;1.60;;;8.60;79.50;;;;;;5054436;28;20067;-75
2023/10/15 07:35:14;;;;;;;2.50;1.15;;;8.70;78.40;;;;;;5054042;28;20028;-77
2023/10/15 07:37:44;;;;;;;3.22;1.40;;;8.80;78.20;;;;;;5053065;28;20020;-78
2023/10/15 07:40:17;;;;;;;10.60;2.80;;;8.80;77.90;;;;;;5054213;28;20215;-73
2023/10/15 07:43:03;;;;;;;5.03;2.03;;;9.20;89.00;;;;;;5054135;28;20086;-74
2023/10/15 07:45:31;;;;;;;3.15;1.40;;;9.40;90.40;;;;;;5053001;28;20033;-72
2023/10/15 07:48:01;;;;;;;4.97;2.03;;;9.30;86.10;;;;;;5052723;28;20385;-76
2023/10/15 07:50:31;;;;;;;2.92;1.55;;;9.40;83.10;;;;;;5052531;28;20030;-73
2023/10/15 07:53:04;;;;;;;3.17;1.30;;;9.60;80.90;;;;;;5052008;28;20029;-73
2023/10/15 07:55:30;;;;;;;3.38;1.50;;;9.90;79.60;;;;;;5053982;28;20061;-74
2023/10/15 07:57:57;;;;;;;4.03;1.30;;;10.10;78.00;;;;;;5036320;28;20068;-72
2023/10/15 08:00:23;;;;;;;4.97;1.70;;;10.20;76.00;;;;;;5053094;28;20335;-74
2023/10/15 08:02:52;;;;;;;2.80;1.38;;;10.20;74.50;;;;;;5053066;28;20039;-74
2023/10/15 08:05:18;;;;;;;3.45;1.60;;;10.30;73.70;;;;;;5054319;28;20351;-80
2023/10/15 08:07:44;;;;;;;2.00;1.52;;;10.40;73.30;;;;;;5053105;28;20036;-79
2023/10/15 08:10:10;;;;;;;3.83;1.98;;;10.40;74.10;;;;;;5052753;28;20021;-75
2023/10/15 08:12:37;;;;;;;5.38;1.50;;;10.50;74.50;;;;;;5054290;28;20032;-77
2023/10/15 08:15:03;;;;;;;4.28;1.70;;;10.50;74.70;;;;;;5053858;28;20064;-79
2023/10/15 08:17:29;;;;;;;4.28;1.58;;;10.60;74.70;;;;;;5054016;28;20481;-78
2023/10/15 08:19:55;;;;;;;3.22;1.85;;;10.70;75.00;;;;;;5052636;28;20040;-73
2023/10/15 08:22:21;;;;;;;5.50;2.28;;;10.80;75.50;;;;;;5052819;28;20107;-75
2023/10/15 08:24:46;;;;;;;4.25;1.88;;;10.70;73.70;;;;;;5055089;28;20048;-79
2023/10/15 08:27:13;;;;;;;5.25;2.17;;;10.60;73.60;;;;;;5053935;28;20032;-82
2023/10/15 08:29:41;;;;;;;6.03;2.28;;;10.60;73.90;;;;;;5052910;28;20028;-81
2023/10/15 08:32:10;;;;;;;4.65;1.70;;;10.50;73.30;;;;;;5055428;28;20029;-80
2023/10/15 08:34:35;;;;;;;4.45;1.55;;;10.50;75.30;;;;;;5061362;28;20045;-80
2023/10/15 08:37:02;;;;;;;5.20;1.80;;;10.60;74.50;;;;;;5068171;28;20047;-77
2023/10/15 08:39:29;;;;;;;2.75;1.40;;;10.80;73.20;;;;;;5067711;28;20005;-77
2023/10/15 08:42:00;;;;;;;3.85;1.67;;;10.90;72.60;;;;;;5065030;28;20100;-84
2023/10/15 08:44:27;;;;;;;3.40;1.75;;;11.00;71.90;;;;;;5061484;28;20092;-80
2023/10/15 08:46:53;;;;;;;3.47;1.77;;;11.20;71.00;;;;;;5060961;28;20020;-84
2023/10/15 08:49:20;;;;;;;5.13;1.63;;;11.20;71.00;;;;;;5057363;28;20469;-83
2023/10/15 08:51:47;;;;;;;4.00;1.77;;;11.20;70.20;;;;;;5054651;28;20020;-81
2023/10/15 08:54:14;;;;;;;5.65;1.80;;;11.20;70.40;;;;;;5053917;28;20017;-77
2023/10/15 08:56:40;;;;;;;5.15;1.80;;;11.10;70.00;;;;;;5053623;28;20068;-81
2023/10/15 08:59:09;;;;;;;6.25;1.70;;;10.90;70.60;;;;;;5053769;28;20032;-74
2023/10/15 09:01:36;;;;;;;4.50;1.20;;;10.80;70.60;;;;;;5053705;28;20029;-78
2023/10/15 09:04:04;;;;;;;3.63;1.50;;;10.90;70.70;;;;;;5056244;28;20029;-78
2023/10/15 09:06:30;;;;;;;5.28;1.33;;;11.00;71.50;;;;;;5057258;28;20059;-77
2023/10/15 09:08:56;;;;;;;3.30;1.40;;;11.20;70.30;;;;;;5056089;28;20469;-76
2023/10/15 09:11:21;;;;;;;3.03;1.25;;;11.60;70.50;;;;;;5057269;28;20082;-74
2023/10/15 09:13:51;;;;;;;6.38;2.10;;;11.80;71.00;;;;;;5057856;28;20044;-79
2023/10/15 09:16:17;;;;;;;5.28;2.08;;;11.60;68.80;;;;;;5059439;28;20033;-73
2023/10/15 09:18:44;;;;;;;7.93;2.03;;;11.50;69.50;;;;;;5055891;28;20106;-80
2023/10/15 09:21:11;;;;;;;7.20;1.88;;;11.40;69.60;;;;;;5056996;28;20040;-83
2023/10/15 09:23:37;;;;;;;11.15;2.72;;;11.30;71.40;;;;;;5057277;28;20028;-80
2023/10/15 09:26:10;;;;;;;7.10;2.13;;;11.30;70.40;;;;;;5057228;28;20435;-83
2023/10/15 09:28:36;;;;;;;8.68;2.20;;;10.80;71.10;;;;;;5057123;28;20017;-79
2023/10/15 09:31:09;;;;;;;5.53;1.70;;;10.50;72.40;;;;;;5058782;28;20037;-79
2023/10/15 09:33:36;;;;;;;7.18;1.80;;;10.40;72.90;;;;;;5059206;28;20040;-79
2023/10/15 09:36:03;;;;;;;5.43;1.90;;;10.30;72.80;;;;;;5057435;28;20191;-84
2023/10/15 09:38:34;;;;;;;4.47;1.58;;;10.10;73.90;;;;;;5058114;28;20532;-77
2023/10/15 09:41:01;;;;;;;6.78;1.83;;;10.10;73.90;;;;;;5057047;28;20029;-79
2023/10/15 09:43:36;;;;;;;6.15;2.08;;;10.20;73.20;;;;;;5056576;28;20017;-81
2023/10/15 09:46:03;;;;;;;9.30;1.90;;;10.00;75.00;;;;;;5056844;28;20489;-83
2023/10/15 09:48:29;;;;;;;6.65;1.67;;;10.40;74.50;;;;;;5056512;28;20025;-84
2023/10/15 09:50:59;;;;;;;6.43;2.00;;;10.70;71.20;;;;;;5056770;28;20083;-84
2023/10/15 09:53:28;;;;;;;4.63;1.75;;;11.00;68.60;;;;;;5058192;28;20032;-82
2023/10/15 09:55:57;;;;;;;7.90;2.13;;;11.20;68.30;;;;;;5060557;28;20060;-80
2023/10/15 09:58:24;;;;;;;4.50;1.60;;;11.30;69.10;;;;;;5062238;28;20074;-85
2023/10/15 10:01:08;;;;;;;5.40;1.80;;;11.40;67.10;;;;;;5061972;28;20025;-83
2023/10/15 10:03:49;;;;;;;6.50;2.20;;;11.20;67.60;;;;;;5058096;28;20025;-83
2023/10/15 10:06:53;;;;;;;6.43;1.85;;;11.50;65.90;;;;;;5056948;28;20471;-85
2023/10/15 10:09:45;;;;;;;5.43;1.50;;;11.60;66.20;;;;;;5056512;28;20027;-83
2023/10/15 10:12:16;;;;;;;4.00;1.48;;;11.90;65.00;;;;;;5056644;28;20029;-84
2023/10/15 10:15:22;;;;;;;8.77;3.55;;;12.30;65.40;;;;;;5057196;28;20025;-82
2023/10/15 10:17:50;;;;;;;4.80;1.25;;;12.70;61.60;;;;;;5058262;28;20029;-81
2023/10/15 10:20:19;;;;;;;6.20;2.35;;;12.80;64.70;;;;;;5056046;28;20112;-81
2023/10/15 10:22:59;;;;;;;5.47;1.70;;;12.80;59.10;;;;;;5056395;28;20033;-86
2023/10/15 10:25:30;;;;;;;7.70;2.20;;;12.70;58.60;;;;;;5056557;28;20117;-82
2023/10/15 10:28:11;;;;;;;5.07;1.75;;;12.20;59.60;;;;;;5056252;28;20094;-82
2023/10/15 10:30:51;;;;;;;6.95;1.90;;;11.60;59.10;;;;;;5055809;28;20469;-84
2023/10/15 10:33:48;;;;;;;6.38;1.67;;;11.20;58.50;;;;;;5054904;28;20064;-79
2023/10/15 10:36:19;;;;;;;5.88;1.98;;;10.90;61.60;;;;;;5055817;28;20037;-76
2023/10/15 10:38:56;;;;;;;4.85;1.30;;;10.80;62.70;;;;;;5056010;28;20021;-78
2023/10/15 10:41:33;;;;;;;6.38;1.80;;;10.70;64.20;;;;;;5055695;28;20055;-81
2023/10/15 10:43:59;;;;;;;4.93;1.63;;;10.50;68.20;;;;;;5055527;28;20025;-75
2023/10/15 10:46:24;;;;;;;5.32;1.27;;;10.30;67.40;;;;;;5055983;28;20527;-84
2023/10/15 10:49:09;;;;;;;4.05;1.35;;;10.10;70.10;;;;;;5054485;28;20025;-79
2023/10/15 10:51:35;;;;;;;3.28;1.38;;;9.90;71.50;;;;;;5054187;28;20024;-75
2023/10/15 10:54:03;;;;;;;5.80;2.03;;;9.70;73.00;;;;;;5054290;28;20064;-78
2023/10/15 10:56:41;;;;;;;2.47;1.58;;;9.70;72.10;;;;;;5055233;28;20493;-74
2023/10/15 10:59:07;;;;;;;2.63;1.27;;;9.90;70.00;;;;;;5054556;28;20127;-82
2023/10/15 11:01:40;;;;;;;2.55;1.10;;;10.00;70.50;;;;;;5055317;28;20128;-84
2023/10/15 11:04:11;;;;;;;3.35;1.20;;;10.60;67.30;;;;;;5054743;28;20167;-84
2023/10/15 11:06:37;;;;;;;7.85;1.67;;;11.00;65.30;;;;;;5053634;28;20025;-77
2023/10/15 11:09:16;;;;;;;3.33;1.42;;;11.10;61.00;;;;;;5054679;28;20087;-83
2023/10/15 11:11:49;;;;;;;4.57;1.30;;;11.20;59.90;;;;;;5056915;28;20120;-83
2023/10/15 11:14:16;;;;;;;3.67;1.83;;;11.00;60.30;;;;;;5061559;28;20024;-82
2023/10/15 11:16:43;;;;;;;3.28;1.40;;;11.10;60.00;;;;;;5054025;28;20033;-80
2023/10/15 11:19:22;;;;;;;4.07;1.48;;;11.00;61.20;;;;;;5053937;28;20032;-81
2023/10/15 11:21:49;;;;;;;4.30;1.65;;;10.80;61.90;;;;;;5055224;28;20060;-84
2023/10/15 11:24:24;;;;;;;3.95;1.60;;;10.60;61.70;;;;;;5054911;28;20017;-84
2023/10/15 11:26:50;;;;;;;2.95;1.70;;;10.60;63.30;;;;;;5053230;28;20389;-81
2023/10/15 11:29:18;;;;;;;4.00;1.33;;;10.70;63.40;;;;;;5053529;28;20025;-73
2023/10/15 11:31:46;;;;;;;8.43;1.40;;;10.50;62.10;;;;;;5053152;28;20389;-83
2023/10/15 11:34:19;;;;;;;3.55;1.05;;;10.50;63.10;;;;;;5053793;28;20064;-87
2023/10/15 11:36:48;;;;;;;5.60;1.77;;;10.60;62.00;;;;;;5054421;28;20033;-83
2023/10/15 11:39:18;;;;;;;4.00;1.70;;;10.80;63.10;;;;;;5058095;28;20426;-79
2023/10/15 11:41:51;;;;;;;5.05;1.48;;;10.90;61.60;;;;;;5054084;28;20531;-84
2023/10/15 11:44:26;;;;;;;5.18;1.05;;;11.20;61.10;;;;;;5055554;28;20049;-84
2023/10/15 11:46:55;;;;;;;3.30;1.20;;;11.20;60.70;;;;;;5053713;28;20021;-85
2023/10/15 11:49:22;;;;;;;2.92;1.17;;;11.10;59.30;;;;;;5053934;28;20116;-84
2023/10/15 11:51:49;;;;;;;7.15;1.52;;;11.30;59.00;;;;;;5054586;28;20055;-84
2023/10/15 11:54:16;;;;;;;4.03;1.30;;;11.30;59.70;;;;;;5055405;28;20032;-85
2023/10/15 11:56:48;;;;;;;2.88;1.00;;;11.50;59.70;;;;;;5053678;28;20402;-84
2023/10/15 11:59:13;;;;;;;4.93;1.00;;;11.40;58.60;;;;;;5054932;28;20060;-84
2023/10/15 12:01:39;;;;;;;1.90;1.08;;;11.60;57.50;;;;;;5052892;28;20033;-81
2023/10/15 12:04:07;;;;;;;5.20;1.35;;;12.00;55.70;;;;;;5054870;28;20031;-82
2023/10/15 12:06:33;;;;;;;3.45;1.25;;;12.50;54.40;;;;;;5055011;28;20040;-81
2023/10/15 12:08:58;;;;;;;4.70;1.42;;;13.20;54.30;;;;;;5055050;28;20126;-81
2023/10/15 12:11:25;;;;;;;3.40;1.27;;;13.30;51.10;;;;;;5054982;28;20053;-86
2023/10/15 12:13:51;;;;;;;2.88;1.20;;;14.00;49.50;;;;;;5054573;28;20021;-81
2023/10/15 12:16:17;;;;;;;6.45;1.65;;;13.60;49.60;;;;;;5053892;28;20032;-86
2023/10/15 12:18:43;;;;;;;5.35;1.38;;;13.90;48.40;;;;;;5054889;28;20020;-82
2023/10/15 12:21:09;;;;;;;4.57;1.58;;;14.00;47.40;;;;;;5056019;28;20103;-84
2023/10/15 12:23:34;;;;;;;4.63;1.48;;;14.50;47.00;;;;;;5054176;28;20025;-76
2023/10/15 12:26:07;;;;;;;4.90;1.50;;;14.20;46.30;;;;;;5053136;28;20028;-84
2023/10/15 12:28:43;;;;;;;2.78;1.40;;;14.10;49.40;;;;;;5054511;28;20377;-84
2023/10/15 12:31:09;;;;;;;;;;;14.40;47.90;;;;;;5067737;28;20055;-85
2023/10/15 12:33:34;;;;;;;4.47;1.52;;;14.40;46.40;;;;;;5065757;28;19916;-85
2023/10/15 12:36:00;;;;;;;3.50;1.30;;;14.10;47.10;;;;;;5055009;28;20037;-84
2023/10/15 12:38:28;;;;;;;3.85;1.27;;;13.90;47.50;;;;;;5054214;28;20104;-81
2023/10/15 12:40:55;;;;;;;3.78;1.30;;;13.70;48.80;;;;;;5054380;28;20592;-81
2023/10/15 12:43:21;;;;;;;3.58;1.50;;;14.20;45.20;;;;;;5052697;28;20111;-73
2023/10/15 12:45:52;;;;;;;4.93;1.80;;;14.30;45.70;;;;;;5053918;28;20032;-83
2023/10/15 12:48:18;;;;;;;4.95;1.30;;;14.10;46.30;;;;;;5055908;28;20024;-76
2023/10/15 12:50:45;;;;;;;4.47;1.55;;;14.40;43.00;;;;;;5053371;28;20083;-74
2023/10/15 12:53:10;;;;;;;3.88;1.20;;;14.30;44.80;;;;;;5052603;28;20548;-78
2023/10/15 12:55:36;;;;;;;3.55;1.38;;;14.40;44.20;;;;;;5056074;28;20083;-80
2023/10/15 12:58:02;;;;;;;4.95;1.85;;;14.10;45.60;;;;;;5057814;28;20108;-73
2023/10/15 13:00:28;;;;;;;4.50;1.88;;;14.00;42.60;;;;;;5067121;28;20029;-73
2023/10/15 13:02:54;;;;;;;6.20;1.90;;;13.90;41.10;;;;;;5069275;28;20095;-78
2023/10/15 13:05:28;;;;;;;4.78;1.25;;;13.70;40.80;;;;;;5061656;28;20025;-77
2023/10/15 13:07:54;;;;;;;2.75;0.98;;;13.30;40.60;;;;;;5056236;28;20036;-88
2023/10/15 13:10:20;;;;;;;6.18;1.45;;;13.20;41.40;;;;;;5056568;28;20077;-86
2023/10/15 13:12:52;;;;;;;2.33;1.10;;;13.20;42.80;;;;;;5055275;28;20059;-82
2023/10/15 13:15:18;;;;;;;3.63;1.58;;;13.10;42.50;;;;;;5056186;28;20469;-83
2023/10/15 13:17:45;;;;;;;2.47;1.23;;;12.80;43.10;;;;;;5056940;28;20436;-80